createdAt,value
2022-12-08T00:01:25.785Z,101075.91
2022-12-08T00:03:53.119Z,101080.06
2022-12-08T00:06:43.181Z,101092.31
2022-12-08T00:09:22.082Z,101083.38
2022-12-08T00:11:53.653Z,101076.13
2022-12-08T00:14:23.587Z,101068.88
2022-12-08T00:16:52.090Z,101061.09
2022-12-08T00:19:19.011Z,101052.38
2022-12-08T00:21:46.150Z,101037.91
2022-12-08T00:24:13.185Z,101050.16
2022-12-08T00:26:40.055Z,101037.13
2022-12-08T00:29:07.268Z,101046.59
2022-12-08T00:31:34.282Z,101039.28
2022-12-08T00:34:02.673Z,101038.16
2022-12-08T00:36:30.762Z,101034.66
2022-12-08T00:38:57.666Z,101020.06
2022-12-08T00:41:44.910Z,101016.66
2022-12-08T00:44:14.056Z,101019.75
2022-12-08T00:46:41.523Z,101013.88
2022-12-08T00:49:11.474Z,101020.31
2022-12-08T00:51:38.573Z,101013.50
2022-12-08T00:54:06.116Z,101008.72
2022-12-08T00:56:33.860Z,101012.19
2022-12-08T00:59:03.154Z,101000.31
2022-12-08T01:01:30.059Z,101006.75
2022-12-08T01:03:56.963Z,101005.91
2022-12-08T01:06:25.568Z,100993.66
2022-12-08T01:08:52.657Z,100974.59
2022-12-08T01:11:20.067Z,100984.59
2022-12-08T01:13:47.241Z,100978.47
2022-12-08T01:16:25.789Z,100978.47
2022-12-08T01:18:53.267Z,100984.53
2022-12-08T01:21:21.331Z,100984.59
2022-12-08T01:23:49.921Z,100974.72
2022-12-08T01:26:19.105Z,100981.69
2022-12-08T01:28:46.741Z,100980.78
2022-12-08T01:31:15.415Z,100986.03
2022-12-08T01:33:42.915Z,101006.50
2022-12-08T01:36:19.379Z,101030.31
2022-12-08T01:38:46.484Z,101027.53
2022-12-08T01:41:17.230Z,101028.81
2022-12-08T01:43:54.529Z,101022.13
2022-12-08T01:46:21.560Z,101004.31
2022-12-08T01:48:49.663Z,101001.81
2022-12-08T01:51:16.880Z,100996.84
2022-12-08T01:53:44.143Z,100990.19
2022-12-08T01:56:16.123Z,100986.13
2022-12-08T01:58:49.776Z,100970.09
2022-12-08T02:01:17.301Z,100969.44
2022-12-08T02:03:48.209Z,100954.88
2022-12-08T02:06:16.597Z,100963.78
2022-12-08T02:08:44.193Z,100950.66
2022-12-08T02:11:12.408Z,100964.78
2022-12-08T02:13:40.603Z,100964.31
2022-12-08T02:16:17.880Z,100965.19
2022-12-08T02:19:29.870Z,100959.06
2022-12-08T02:21:57.245Z,100954.59
2022-12-08T02:24:32.898Z,100968.22
2022-12-08T02:27:22.973Z,100976.56
2022-12-08T02:30:15.339Z,100983.47
2022-12-08T02:33:23.771Z,100975.97
2022-12-08T02:35:58.307Z,100983.81
2022-12-08T02:38:38.939Z,100967.97
2022-12-08T02:41:19.025Z,100951.47
2022-12-08T02:43:48.613Z,100948.16
2022-12-08T02:46:21.308Z,100936.00
2022-12-08T02:48:48.620Z,100948.13
2022-12-08T02:51:16.934Z,100941.16
2022-12-08T02:53:45.109Z,100935.00
2022-12-08T02:56:25.962Z,100907.00
2022-12-08T02:59:10.522Z,100903.34
2022-12-08T03:01:53.901Z,100899.03
2022-12-08T03:04:34.653Z,100897.22
2022-12-08T03:07:06.991Z,100891.34
2022-12-08T03:09:38.700Z,100902.53
2022-12-08T03:12:14.058Z,100915.31
2022-12-08T03:14:45.956Z,100927.53
2022-12-08T03:17:16.066Z,100920.06
2022-12-08T03:19:46.008Z,100922.88
2022-12-08T03:22:16.681Z,100925.16
2022-12-08T03:24:45.827Z,100923.41
2022-12-08T03:27:15.688Z,100927.03
2022-12-08T03:29:42.854Z,100921.38
2022-12-08T03:32:26.704Z,100920.78
2022-12-08T03:34:54.480Z,100919.09
2022-12-08T03:37:22.980Z,100924.38
2022-12-08T03:39:50.153Z,100923.25
2022-12-08T03:42:17.089Z,100913.59
2022-12-08T03:44:44.131Z,100916.41
2022-12-08T03:47:11.027Z,100912.75
2022-12-08T03:49:37.847Z,100910.91
2022-12-08T03:52:05.928Z,100904.50
2022-12-08T03:54:34.571Z,100900.91
2022-12-08T03:57:01.448Z,100894.13
2022-12-08T03:59:28.243Z,100903.41
2022-12-08T04:01:55.108Z,100898.09
2022-12-08T04:04:21.930Z,100896.34
2022-12-08T04:06:48.878Z,100893.81
2022-12-08T04:09:15.747Z,100890.50
2022-12-08T04:11:44.098Z,100881.72
2022-12-08T04:14:10.954Z,100885.25
2022-12-08T04:16:37.888Z,100885.38
2022-12-08T04:19:04.842Z,100876.09
2022-12-08T04:21:31.559Z,100863.34
2022-12-08T04:24:01.253Z,100862.81
2022-12-08T04:26:28.892Z,100860.38
2022-12-08T04:28:57.143Z,100855.38
2022-12-08T04:31:24.187Z,100855.59
2022-12-08T04:33:51.000Z,100860.31
2022-12-08T04:36:17.926Z,100858.84
2022-12-08T04:38:44.785Z,100864.41
2022-12-08T04:41:11.797Z,100869.84
2022-12-08T04:43:38.611Z,100860.28
2022-12-08T04:46:08.802Z,100865.78
2022-12-08T04:48:37.930Z,100863.16
2022-12-08T04:51:04.987Z,100869.28
2022-12-08T04:53:32.402Z,100865.69
2022-12-08T04:55:59.375Z,100857.81
2022-12-08T04:58:26.215Z,100851.72
2022-12-08T05:00:53.158Z,100859.53
2022-12-08T05:03:28.329Z,100856.91
2022-12-08T05:05:56.068Z,100855.94
2022-12-08T05:08:22.932Z,100850.81
2022-12-08T05:10:49.793Z,100853.44
2022-12-08T05:13:16.713Z,100850.03
2022-12-08T05:15:43.547Z,100851.72
2022-12-08T05:18:10.483Z,100850.59
2022-12-08T05:20:38.759Z,100845.34
2022-12-08T05:23:05.487Z,100850.44
2022-12-08T05:25:32.266Z,100846.88
2022-12-08T05:28:24.796Z,100848.53
2022-12-08T05:30:46.512Z,100848.47
2022-12-08T05:33:13.361Z,100847.59
2022-12-08T05:35:41.729Z,100840.59
2022-12-08T05:38:09.476Z,100838.72
2022-12-08T05:40:37.899Z,100836.88
2022-12-08T05:43:04.907Z,100839.63
2022-12-08T05:45:31.744Z,100825.03
2022-12-08T05:47:58.597Z,100835.97
2022-12-08T05:50:25.427Z,100835.19
2022-12-08T05:52:58.301Z,100845.47
2022-12-08T05:55:25.051Z,100834.84
2022-12-08T05:57:51.771Z,100818.06
2022-12-08T06:00:19.723Z,100833.13
2022-12-08T06:02:46.960Z,100820.34
2022-12-08T06:05:13.878Z,100819.66
2022-12-08T06:07:40.695Z,100818.56
2022-12-08T06:10:09.973Z,100818.56
2022-12-08T06:12:36.747Z,100824.56
2022-12-08T06:15:04.360Z,100824.56
2022-12-08T06:17:31.324Z,100835.22
2022-12-08T06:19:58.112Z,100834.59
2022-12-08T06:22:25.325Z,100836.47
2022-12-08T06:24:54.254Z,100833.19
2022-12-08T06:35:28.635Z,100839.00
2022-12-08T06:37:55.505Z,100834.88
2022-12-08T06:40:22.286Z,100834.91
2022-12-08T06:42:49.113Z,100831.63
2022-12-08T06:45:17.571Z,100833.31
2022-12-08T06:47:44.422Z,100834.16
2022-12-08T06:50:12.494Z,100838.66
2022-12-08T06:52:51.591Z,100843.81
2022-12-08T06:55:57.435Z,100837.63
2022-12-08T06:58:14.399Z,100840.28
2022-12-08T07:00:42.054Z,100848.16
2022-12-08T07:03:09.518Z,100844.78
2022-12-08T07:05:37.041Z,100854.22
2022-12-08T07:08:07.149Z,100854.28
2022-12-08T07:10:35.499Z,100854.41
2022-12-08T07:13:02.623Z,100856.91
2022-12-08T07:15:29.485Z,100857.00
2022-12-08T07:17:59.825Z,100857.88
2022-12-08T07:20:27.403Z,100855.25
2022-12-08T07:22:54.487Z,100857.84
2022-12-08T07:25:22.879Z,100851.75
2022-12-08T07:27:51.755Z,100864.72
2022-12-08T07:30:19.154Z,100866.25
2022-12-08T07:32:46.137Z,100862.31
2022-12-08T07:35:13.520Z,100863.06
2022-12-08T07:37:40.621Z,100869.22
2022-12-08T07:40:09.137Z,100870.03
2022-12-08T07:42:37.457Z,100856.06
2022-12-08T07:45:05.053Z,100859.59
2022-12-08T07:47:31.948Z,100865.66
2022-12-08T07:49:58.944Z,100860.19
2022-12-08T07:52:25.823Z,100856.72
2022-12-08T07:54:52.695Z,100857.91
2022-12-08T07:57:19.518Z,100864.16
2022-12-08T07:59:47.869Z,100851.19
2022-12-08T08:02:26.281Z,100849.53
2022-12-08T08:04:53.611Z,100847.13
2022-12-08T08:07:20.622Z,100849.88
2022-12-08T08:09:47.409Z,100843.91
2022-12-08T08:12:30.768Z,100839.63
2022-12-08T08:15:00.432Z,100834.47
2022-12-08T08:17:28.334Z,100830.97
2022-12-08T08:19:55.580Z,100840.53
2022-12-08T08:22:22.870Z,100844.94
2022-12-08T08:24:50.597Z,100841.41
2022-12-08T08:27:17.485Z,100835.94
2022-12-08T08:29:44.380Z,100847.44
2022-12-08T08:32:12.522Z,100840.78
2022-12-08T08:34:39.332Z,100848.97
2022-12-08T08:37:06.163Z,100846.47
2022-12-08T08:39:33.045Z,100850.31
2022-12-08T08:41:59.895Z,100848.31
2022-12-08T08:44:26.678Z,100853.69
2022-12-08T08:46:53.521Z,100847.06
2022-12-08T08:49:21.788Z,100851.06
2022-12-08T08:51:48.866Z,100843.44
2022-12-08T08:54:15.799Z,100849.78
2022-12-08T08:56:42.570Z,100839.28
2022-12-08T08:59:09.821Z,100834.28
2022-12-08T09:01:36.937Z,100839.63
2022-12-08T09:04:03.892Z,100832.66
2022-12-08T09:06:32.309Z,100836.38
2022-12-08T09:08:59.558Z,100841.09
2022-12-08T09:11:26.368Z,100842.00
2022-12-08T09:13:54.113Z,100838.47
2022-12-08T09:16:21.830Z,100835.63
2022-12-08T09:18:49.695Z,100841.56
2022-12-08T09:21:22.610Z,100830.91
2022-12-08T09:23:52.772Z,100840.34
2022-12-08T09:26:22.495Z,100844.78
2022-12-08T09:28:50.232Z,100847.31
2022-12-08T09:31:18.123Z,100850.03
2022-12-08T09:33:45.346Z,100860.84
2022-12-08T09:36:12.212Z,100871.81
2022-12-08T09:38:39.634Z,100868.97
2022-12-08T09:41:16.764Z,100869.44
2022-12-08T09:43:55.732Z,100865.88
2022-12-08T09:46:23.391Z,100873.88
2022-12-08T09:48:56.079Z,100879.94
2022-12-08T09:51:25.478Z,100880.84
2022-12-08T09:53:56.388Z,100885.31
2022-12-08T09:56:30.142Z,100888.59
2022-12-08T09:59:00.231Z,100885.31
2022-12-08T10:01:29.990Z,100879.47
2022-12-08T10:03:57.704Z,100883.22
2022-12-08T10:06:30.783Z,100889.69
2022-12-08T10:09:12.786Z,100884.78
2022-12-08T10:11:51.909Z,100878.81
2022-12-08T10:14:31.370Z,100877.28
2022-12-08T10:17:04.082Z,100876.41
2022-12-08T10:19:33.873Z,100866.81
2022-12-08T10:22:02.229Z,100866.78
2022-12-08T10:24:37.519Z,100859.03
2022-12-08T10:27:10.128Z,100850.06
2022-12-08T10:29:36.987Z,100853.44
2022-12-08T10:32:14.302Z,100849.69
2022-12-08T10:35:01.739Z,100840.19
2022-12-08T10:37:28.692Z,100838.31
2022-12-08T10:40:06.229Z,100826.13
2022-12-08T10:42:38.221Z,100817.34
2022-12-08T10:45:20.373Z,100803.13
2022-12-08T10:48:00.079Z,100798.59
2022-12-08T10:50:33.362Z,100794.19
2022-12-08T10:53:02.575Z,100772.88
2022-12-08T10:55:44.958Z,100779.25
2022-12-08T10:58:30.513Z,100780.19
2022-12-08T11:01:04.046Z,100774.53
2022-12-08T11:03:37.232Z,100782.09
2022-12-08T11:06:15.292Z,100781.41
2022-12-08T11:08:54.377Z,100775.38
2022-12-08T11:11:29.257Z,100777.00
2022-12-08T11:13:59.142Z,100771.94
2022-12-08T11:16:27.683Z,100778.97
2022-12-08T11:18:59.128Z,100771.16
2022-12-08T11:21:44.613Z,100765.44
2022-12-08T11:24:32.293Z,100765.63
2022-12-08T11:29:50.840Z,100774.09
2022-12-08T11:35:07.655Z,100769.34
2022-12-08T11:43:25.833Z,100772.97
2022-12-08T11:46:00.475Z,100779.94
2022-12-08T11:48:33.702Z,100809.41
2022-12-08T11:51:09.667Z,100808.00
2022-12-08T11:53:44.818Z,100826.75
2022-12-08T11:56:20.103Z,100819.72
2022-12-08T11:58:51.711Z,100822.59
2022-12-08T12:01:24.022Z,100811.03
2022-12-08T12:04:10.802Z,100797.44
2022-12-08T12:06:55.681Z,100793.81
2022-12-08T12:09:37.819Z,100784.78
2022-12-08T12:12:17.021Z,100792.22
2022-12-08T12:15:22.648Z,100803.22
2022-12-08T12:17:53.431Z,100789.78
2022-12-08T12:20:24.307Z,100792.34
2022-12-08T12:22:57.264Z,100791.97
2022-12-08T12:25:34.808Z,100782.19
2022-12-08T12:28:07.210Z,100787.28
2022-12-08T12:31:06.701Z,100779.84
2022-12-08T12:33:42.466Z,100771.63
2022-12-08T13:40:10.379Z,100738.16
2022-12-08T13:42:44.335Z,100724.06
2022-12-08T13:45:24.510Z,100733.97
2022-12-08T13:52:59.812Z,100716.66
2022-12-08T13:54:48.788Z,100722.03
2022-12-08T13:57:11.242Z,100712.66
2022-12-08T13:59:36.323Z,100712.59
2022-12-08T14:02:16.492Z,100714.25
2022-12-08T14:05:16.830Z,100713.38
2022-12-08T14:07:34.135Z,100718.69
2022-12-08T14:10:03.756Z,100729.47
2022-12-08T14:12:32.959Z,100717.56
2022-12-08T14:15:04.341Z,100723.94
2022-12-08T14:17:32.024Z,100716.50
2022-12-08T14:20:01.563Z,100727.13
2022-12-08T14:22:34.560Z,100737.75
2022-12-08T14:25:05.119Z,100735.19
2022-12-08T14:27:35.060Z,100736.94
2022-12-08T14:30:03.828Z,100728.53
2022-12-08T14:32:34.306Z,100732.88
2022-12-08T14:35:11.398Z,100733.22
2022-12-08T14:37:42.397Z,100729.19
2022-12-08T14:40:23.558Z,100731.88
2022-12-08T14:42:51.636Z,100739.97
2022-12-08T14:45:19.733Z,100742.84
2022-12-08T14:47:48.590Z,100733.56
2022-12-08T14:50:39.561Z,100744.31
2022-12-08T14:53:13.344Z,100735.72
2022-12-08T14:55:43.864Z,100742.84
2022-12-08T14:58:18.700Z,100749.03
2022-12-08T15:00:47.938Z,100745.56
2022-12-08T15:03:17.108Z,100740.03
2022-12-08T15:05:44.628Z,100746.34
2022-12-08T15:08:14.908Z,100744.69
2022-12-08T15:10:48.226Z,100749.75
2022-12-08T15:13:22.918Z,100751.53
2022-12-08T15:15:52.325Z,100750.25
2022-12-08T15:18:21.903Z,100755.28
2022-12-08T15:20:51.808Z,100758.78
2022-12-08T15:23:26.199Z,100765.88
2022-12-08T15:25:55.572Z,100767.00
2022-12-08T15:28:29.441Z,100760.16
2022-12-08T15:30:59.197Z,100767.06
2022-12-08T15:33:26.691Z,100767.09
2022-12-08T15:35:53.738Z,100767.09
2022-12-08T15:38:23.035Z,100766.34
2022-12-08T15:40:50.493Z,100766.63
2022-12-08T15:43:18.796Z,100768.47
2022-12-08T15:45:57.880Z,100769.31
2022-12-08T15:48:27.794Z,100775.31
2022-12-08T15:50:56.185Z,100768.13
2022-12-08T15:53:23.298Z,100771.41
2022-12-08T15:56:18.898Z,100775.78
2022-12-08T15:58:56.026Z,100771.28
2022-12-08T16:01:24.230Z,100773.84
2022-12-08T16:09:31.394Z,100773.94
2022-12-08T16:12:17.092Z,100771.22
2022-12-08T16:17:33.549Z,100773.59
2022-12-08T16:20:00.994Z,100782.09
2022-12-08T16:22:54.564Z,100777.75
2022-12-08T16:25:20.021Z,100776.03
2022-12-08T16:30:37.402Z,100789.34
2022-12-08T16:33:04.674Z,100785.16
2022-12-08T16:35:31.831Z,100789.63
2022-12-08T16:37:59.350Z,100786.81
2022-12-08T16:40:26.292Z,100785.88
2022-12-08T16:42:53.607Z,100783.44
2022-12-08T16:45:22.489Z,100787.16
2022-12-08T16:47:52.314Z,100783.75
2022-12-08T16:50:19.947Z,100785.53
2022-12-08T16:52:46.645Z,100783.31
2022-12-08T16:55:15.057Z,100790.75
2022-12-08T16:57:42.236Z,100778.97
2022-12-08T17:00:11.680Z,100787.88
2022-12-08T17:02:38.745Z,100792.59
2022-12-08T17:05:07.838Z,100788.53
2022-12-08T17:07:35.715Z,100789.59
2022-12-08T17:10:04.993Z,100789.69
2022-12-08T17:12:32.046Z,100791.16
2022-12-08T17:14:58.937Z,100790.59
2022-12-08T17:17:25.773Z,100792.50
2022-12-08T17:19:52.917Z,100777.13
2022-12-08T17:22:21.196Z,100789.56
2022-12-08T17:24:48.209Z,100791.59
2022-12-08T17:27:15.206Z,100797.81
2022-12-08T17:29:42.090Z,100793.72
2022-12-08T17:32:08.995Z,100796.72
2022-12-08T17:34:35.894Z,100794.16
2022-12-08T17:37:02.849Z,100787.41
2022-12-08T17:39:31.179Z,100791.09
2022-12-08T17:41:58.050Z,100790.03
2022-12-08T17:44:25.172Z,100794.78
2022-12-08T17:46:56.853Z,100791.00
2022-12-08T17:49:27.235Z,100797.50
2022-12-08T17:54:39.270Z,100793.06
2022-12-08T17:57:06.544Z,100789.63
2022-12-08T17:59:33.974Z,100792.84
2022-12-08T18:02:01.744Z,100790.03
2022-12-08T18:04:29.455Z,100792.81
2022-12-08T18:06:59.390Z,100787.75
2022-12-08T18:09:26.412Z,100792.31
2022-12-08T18:11:54.753Z,100795.09
2022-12-08T18:14:21.960Z,100790.03
2022-12-08T18:16:49.242Z,100798.06
2022-12-08T18:19:16.377Z,100791.47
2022-12-08T18:21:44.003Z,100780.53
2022-12-08T18:24:16.918Z,100796.81
2022-12-08T18:26:43.756Z,100780.31
2022-12-08T18:29:12.111Z,100783.75
2022-12-08T18:31:38.967Z,100782.91
2022-12-08T18:34:05.800Z,100777.88
2022-12-08T18:36:32.905Z,100783.88
2022-12-08T18:39:00.100Z,100787.44
2022-12-08T18:41:27.100Z,100792.97
2022-12-08T18:43:55.518Z,100801.78
2022-12-08T18:46:26.812Z,100806.50
2022-12-08T18:48:53.622Z,100795.44
2022-12-08T18:51:22.805Z,100803.06
2022-12-08T18:53:50.791Z,100811.75
2022-12-08T18:56:22.304Z,100810.25
2022-12-08T18:58:49.255Z,100820.81
2022-12-08T19:02:04.658Z,100816.50
2022-12-08T19:05:01.444Z,100815.78
2022-12-08T19:07:30.578Z,100821.72
2022-12-08T19:09:59.340Z,100816.44
2022-12-08T19:12:26.966Z,100817.31
2022-12-08T19:14:54.062Z,100823.44
2022-12-08T19:29:20.312Z,100818.31
2022-12-08T19:31:47.299Z,100814.66
2022-12-08T19:34:14.821Z,100830.44
2022-12-08T19:36:43.207Z,100830.47
2022-12-08T19:39:33.846Z,100823.81
2022-12-08T19:42:19.489Z,100821.94
2022-12-08T19:44:54.279Z,100818.31
2022-12-08T19:47:22.727Z,100822.50
2022-12-08T19:49:50.022Z,100815.22
2022-12-08T19:52:17.372Z,100819.03
2022-12-08T19:54:44.539Z,100819.72
2022-12-08T19:57:11.817Z,100822.78
2022-12-08T19:59:39.100Z,100824.00
2022-12-08T20:02:08.149Z,100828.63
2022-12-08T20:04:35.355Z,100821.69
2022-12-08T20:07:02.552Z,100815.09
2022-12-08T20:09:30.523Z,100828.28
2022-12-08T20:11:58.736Z,100824.09
2022-12-08T20:14:26.486Z,100841.44
2022-12-08T20:16:53.630Z,100832.06
2022-12-08T20:19:22.371Z,100846.00
2022-12-08T20:21:49.344Z,100847.00
2022-12-08T20:24:16.776Z,100845.28
2022-12-08T20:26:43.595Z,100849.56
2022-12-08T20:29:10.902Z,100847.66
2022-12-08T20:31:38.545Z,100846.56
2022-12-08T20:34:05.719Z,100847.28
2022-12-08T20:36:34.304Z,100847.13
2022-12-08T20:39:01.263Z,100826.78
2022-12-08T20:41:28.231Z,100834.19
2022-12-08T20:43:55.170Z,100843.56
2022-12-08T20:46:22.375Z,100842.66
2022-12-08T20:48:49.449Z,100841.72
2022-12-08T20:51:18.483Z,100845.19
2022-12-08T20:53:47.874Z,100846.94
2022-12-08T20:56:16.421Z,100847.72
2022-12-08T20:58:43.506Z,100850.25
2022-12-08T21:01:12.294Z,100852.59
2022-12-08T21:03:40.396Z,100846.28
2022-12-08T21:06:07.965Z,100854.94
2022-12-08T21:08:35.501Z,100850.59
2022-12-08T21:11:04.795Z,100860.09
2022-12-08T21:13:32.073Z,100856.59
2022-12-08T21:15:59.310Z,100863.34
2022-12-08T21:18:26.390Z,100871.94
2022-12-08T21:20:53.521Z,100876.22
2022-12-08T21:23:20.474Z,100878.75
2022-12-08T21:25:47.654Z,100876.06
2022-12-08T21:28:15.975Z,100873.84
2022-12-08T21:30:43.530Z,100875.31
2022-12-08T21:33:10.586Z,100864.78
2022-12-08T21:35:37.663Z,100862.25
2022-12-08T21:38:05.546Z,100865.03
2022-12-08T21:40:32.680Z,100867.75
2022-12-08T21:42:59.650Z,100868.72
2022-12-08T21:45:28.328Z,100876.41
2022-12-08T21:47:55.484Z,100877.00
2022-12-08T21:50:22.482Z,100871.75
2022-12-08T21:52:50.334Z,100872.53
2022-12-08T21:55:19.245Z,100860.56
2022-12-08T21:57:46.333Z,100873.22
2022-12-08T22:00:15.803Z,100873.78
2022-12-08T22:02:45.022Z,100875.34
2022-12-08T22:05:13.391Z,100881.44
2022-12-08T22:07:41.252Z,100874.66
2022-12-08T22:10:10.572Z,100872.19
2022-12-08T22:12:38.537Z,100871.47
2022-12-08T22:15:07.281Z,100876.75
2022-12-08T22:17:37.551Z,100875.84
2022-12-08T22:20:09.422Z,100877.09
2022-12-08T22:22:37.320Z,100872.63
2022-12-08T22:25:06.120Z,100878.69
2022-12-08T22:27:33.831Z,100879.88
2022-12-08T22:30:00.759Z,100873.28
2022-12-08T22:32:27.730Z,100876.28
2022-12-08T22:34:54.903Z,100878.41
2022-12-08T22:37:23.275Z,100881.19
2022-12-08T22:39:50.179Z,100884.88
2022-12-08T22:42:17.146Z,100875.63
2022-12-08T22:44:44.048Z,100888.88
2022-12-08T22:47:11.063Z,100881.34
2022-12-08T22:49:37.952Z,100871.00
2022-12-08T22:52:05.247Z,100865.06
2022-12-08T22:54:33.788Z,100868.69
2022-12-08T22:57:00.580Z,100858.41
2022-12-08T22:59:33.751Z,100854.06
2022-12-08T23:02:03.219Z,100847.38
2022-12-08T23:04:30.473Z,100859.38
2022-12-08T23:06:57.605Z,100855.91
2022-12-08T23:09:24.788Z,100857.81
2022-12-08T23:11:53.608Z,100855.38
2022-12-08T23:14:20.791Z,100859.09
2022-12-08T23:16:47.979Z,100859.22
2022-12-08T23:19:14.859Z,100853.94
2022-12-08T23:21:41.724Z,100849.88
2022-12-08T23:24:08.620Z,100849.19
2022-12-08T23:26:35.918Z,100844.59
2022-12-08T23:29:04.613Z,100842.59
2022-12-08T23:31:32.355Z,100849.72
2022-12-08T23:34:00.055Z,100852.50
2022-12-08T23:36:27.001Z,100846.63
2022-12-08T23:38:54.357Z,100841.66
2022-12-08T23:41:22.042Z,100832.31
2022-12-08T23:43:50.761Z,100821.94
2022-12-08T23:46:21.878Z,100835.84
2022-12-08T23:48:49.656Z,100838.56
2022-12-08T23:51:16.908Z,100841.88
2022-12-08T23:53:44.519Z,100836.16
2022-12-08T23:56:13.519Z,100832.66
2022-12-08T23:58:41.687Z,100832.38
